createdAt,value
2023-05-22T00:00:01.851Z,39.02
2023-05-22T00:01:01.933Z,39.04
2023-05-22T00:02:02.082Z,39.02
2023-05-22T00:03:02.169Z,39.07
2023-05-22T00:04:02.222Z,39.03
2023-05-22T00:05:02.345Z,39.03
2023-05-22T00:06:02.398Z,39.06
2023-05-22T00:07:02.462Z,39.03
2023-05-22T00:08:02.541Z,39.06
2023-05-22T00:09:02.602Z,39.06
2023-05-22T00:10:02.677Z,39.06
2023-05-22T00:11:02.763Z,39.06
2023-05-22T00:12:02.834Z,39.03
2023-05-22T00:13:02.912Z,39.06
2023-05-22T00:14:02.990Z,39.06
2023-05-22T00:15:03.066Z,39.06
2023-05-22T00:16:03.154Z,39.07
2023-05-22T00:17:03.262Z,39.07
2023-05-22T00:18:03.379Z,39.09
2023-05-22T00:19:03.398Z,39.07
2023-05-22T00:20:03.463Z,39.14
2023-05-22T00:21:03.540Z,39.19
2023-05-22T00:22:03.634Z,39.18
2023-05-22T00:24:18.472Z,39.03
2023-05-22T00:25:19.577Z,39.39
2023-05-22T00:26:19.656Z,39.34
2023-05-22T00:27:19.726Z,39.28
2023-05-22T00:28:19.793Z,39.31
2023-05-22T00:29:19.901Z,39.26
2023-05-22T00:30:19.972Z,39.27
2023-05-22T00:31:20.069Z,39.25
2023-05-22T00:32:20.156Z,39.23
2023-05-22T00:33:20.247Z,39.25
2023-05-22T00:34:20.357Z,39.24
2023-05-22T00:35:20.400Z,39.24
2023-05-22T00:36:20.473Z,39.25
2023-05-22T00:37:20.559Z,39.25
2023-05-22T00:38:20.628Z,39.26
2023-05-22T00:39:20.704Z,39.28
2023-05-22T00:40:20.782Z,39.31
2023-05-22T00:41:20.865Z,39.34
2023-05-22T00:42:20.958Z,39.31
2023-05-22T00:43:21.039Z,39.38
2023-05-22T00:44:21.144Z,39.35
2023-05-22T00:45:21.190Z,39.35
2023-05-22T00:46:21.385Z,39.35
2023-05-22T00:47:21.324Z,39.42
2023-05-22T00:48:21.405Z,39.43
2023-05-22T00:49:21.481Z,39.45
2023-05-22T00:50:21.573Z,39.45
2023-05-22T00:51:21.642Z,39.39
2023-05-22T00:52:21.719Z,39.39
2023-05-22T00:53:21.799Z,39.41
2023-05-22T00:54:21.867Z,39.43
2023-05-22T00:55:21.961Z,39.46
2023-05-22T00:56:22.035Z,39.48
2023-05-22T00:57:22.133Z,39.46
2023-05-22T00:58:22.192Z,39.46
2023-05-22T00:59:22.265Z,39.47
2023-05-22T01:00:22.359Z,39.51
2023-05-22T01:01:22.507Z,39.50
2023-05-22T01:02:22.504Z,39.52
2023-05-22T01:03:22.646Z,39.49
2023-05-22T01:04:22.647Z,39.53
2023-05-22T01:05:22.721Z,39.59
2023-05-22T01:06:22.809Z,39.57
2023-05-22T01:07:22.884Z,39.58
2023-05-22T01:08:22.975Z,39.61
2023-05-22T01:09:23.036Z,39.61
2023-05-22T01:10:23.135Z,39.57
2023-05-22T01:11:23.211Z,39.57
2023-05-22T01:12:23.300Z,39.58
2023-05-22T01:13:23.380Z,39.58
2023-05-22T01:14:23.459Z,39.57
2023-05-22T01:15:23.542Z,39.61
2023-05-22T01:16:23.707Z,39.63
2023-05-22T01:17:23.710Z,39.64
2023-05-22T01:18:23.765Z,39.64
2023-05-22T01:19:23.910Z,39.64
2023-05-22T01:20:23.928Z,39.59
2023-05-22T01:21:24.043Z,39.65
2023-05-22T01:22:24.087Z,39.64
2023-05-22T01:23:24.202Z,39.65
2023-05-22T01:24:24.266Z,39.61
2023-05-22T01:25:24.333Z,39.64
2023-05-22T01:26:24.434Z,39.67
2023-05-22T01:27:24.474Z,39.67
2023-05-22T01:28:24.535Z,39.71
2023-05-22T01:29:24.617Z,39.69
2023-05-22T01:30:24.687Z,39.71
2023-05-22T01:31:24.773Z,39.69
2023-05-22T01:32:24.896Z,39.69
2023-05-22T01:33:25.025Z,39.69
2023-05-22T01:34:25.031Z,39.72
2023-05-22T01:35:25.111Z,39.71
2023-05-22T01:36:25.220Z,39.73
2023-05-22T01:37:25.291Z,39.75
2023-05-22T01:38:25.343Z,39.72
2023-05-22T01:39:25.459Z,39.72
2023-05-22T01:40:25.518Z,39.75
2023-05-22T01:41:25.629Z,39.71
2023-05-22T01:42:25.726Z,39.74
2023-05-22T01:43:25.762Z,39.77
2023-05-22T01:44:25.846Z,39.80
2023-05-22T01:45:25.917Z,39.81
2023-05-22T01:46:26.044Z,39.79
2023-05-22T01:47:26.196Z,39.82
2023-05-22T01:48:26.219Z,39.80
2023-05-22T01:49:26.249Z,39.82
2023-05-22T01:50:26.325Z,39.81
2023-05-22T01:51:26.403Z,39.84
2023-05-22T01:52:26.497Z,39.85
2023-05-22T01:53:26.571Z,39.83
2023-05-22T01:54:26.648Z,39.84
2023-05-22T01:55:26.715Z,39.84
2023-05-22T01:56:26.782Z,39.83
2023-05-22T01:57:26.873Z,39.84
2023-05-22T01:58:26.927Z,39.85
2023-05-22T01:59:26.996Z,39.89
2023-05-22T02:00:27.073Z,39.88
2023-05-22T02:01:27.217Z,39.86
2023-05-22T02:02:27.356Z,39.88
2023-05-22T02:03:27.456Z,39.88
2023-05-22T02:04:27.405Z,39.92
2023-05-22T02:05:27.499Z,39.87
2023-05-22T02:06:27.585Z,39.89
2023-05-22T02:07:27.684Z,39.86
2023-05-22T02:08:27.736Z,39.89
2023-05-22T02:09:27.807Z,39.86
2023-05-22T02:10:27.876Z,39.90
2023-05-22T02:11:27.955Z,39.91
2023-05-22T02:12:28.030Z,39.92
2023-05-22T02:13:28.127Z,39.97
2023-05-22T02:14:28.191Z,39.92
2023-05-22T02:15:28.291Z,39.93
2023-05-22T02:16:28.338Z,39.93
2023-05-22T02:17:28.437Z,39.92
2023-05-22T02:18:28.490Z,39.93
2023-05-22T02:19:28.595Z,39.96
2023-05-22T02:20:28.662Z,39.92
2023-05-22T02:21:28.742Z,39.96
2023-05-22T02:22:28.811Z,39.96
2023-05-22T02:23:28.879Z,39.99
2023-05-22T02:24:28.963Z,39.99
2023-05-22T02:25:29.037Z,39.99
2023-05-22T02:26:29.154Z,39.98
2023-05-22T02:27:29.199Z,39.99
2023-05-22T02:28:29.290Z,39.97
2023-05-22T02:29:29.393Z,39.99
2023-05-22T02:30:29.431Z,40.01
2023-05-22T02:31:29.559Z,40.00
2023-05-22T02:32:29.671Z,40.00
2023-05-22T02:33:29.678Z,40.01
2023-05-22T02:34:29.772Z,40.00
2023-05-22T02:35:29.855Z,40.01
2023-05-22T02:36:29.928Z,40.05
2023-05-22T02:37:30.005Z,40.04
2023-05-22T02:38:30.073Z,40.04
2023-05-22T02:39:30.179Z,40.04
2023-05-22T02:40:30.259Z,40.03
2023-05-22T02:41:30.337Z,40.04
2023-05-22T02:42:30.424Z,40.07
2023-05-22T02:43:30.482Z,40.06
2023-05-22T02:44:30.570Z,40.08
2023-05-22T02:45:30.638Z,40.06
2023-05-22T02:46:30.755Z,40.09
2023-05-22T02:47:30.902Z,40.07
2023-05-22T02:48:30.913Z,40.08
2023-05-22T02:49:30.980Z,40.08
2023-05-22T02:50:31.105Z,40.08
2023-05-22T02:51:31.140Z,40.10
2023-05-22T02:52:31.215Z,40.10
2023-05-22T02:53:31.311Z,40.10
2023-05-22T02:54:31.388Z,40.10
2023-05-22T02:55:31.490Z,40.11
2023-05-22T02:56:31.549Z,40.13
2023-05-22T02:57:31.649Z,40.10
2023-05-22T02:58:31.730Z,40.11
2023-05-22T02:59:31.805Z,40.11
2023-05-22T03:00:31.884Z,40.14
2023-05-22T03:01:31.978Z,40.13
2023-05-22T03:02:32.076Z,40.16
2023-05-22T03:03:32.236Z,40.10
2023-05-22T03:04:32.169Z,40.14
2023-05-22T03:05:32.271Z,40.15
2023-05-22T03:06:32.366Z,40.16
2023-05-22T03:07:32.403Z,40.17
2023-05-22T03:08:32.482Z,40.19
2023-05-22T03:09:32.594Z,40.20
2023-05-22T03:10:32.665Z,40.20
2023-05-22T03:11:32.742Z,40.16
2023-05-22T03:12:32.804Z,40.16
2023-05-22T03:13:32.882Z,40.15
2023-05-22T03:14:32.950Z,40.15
2023-05-22T03:15:33.054Z,40.15
2023-05-22T03:16:33.167Z,40.20
2023-05-22T03:17:33.221Z,40.18
2023-05-22T03:18:33.274Z,40.20
2023-05-22T03:19:33.370Z,40.21
2023-05-22T03:20:33.421Z,40.18
2023-05-22T03:21:33.491Z,40.17
2023-05-22T03:22:33.558Z,40.19
2023-05-22T03:23:33.629Z,40.21
2023-05-22T03:24:33.709Z,40.21
2023-05-22T03:25:33.805Z,40.19
2023-05-22T03:26:33.882Z,40.20
2023-05-22T03:27:33.968Z,40.17
2023-05-22T03:28:34.111Z,40.16
2023-05-22T03:29:34.156Z,40.22
2023-05-22T03:30:34.235Z,40.20
2023-05-22T03:31:34.310Z,40.21
2023-05-22T03:32:34.469Z,40.19
2023-05-22T03:33:34.502Z,40.19
2023-05-22T03:34:34.564Z,40.22
2023-05-22T03:35:34.633Z,40.22
2023-05-22T03:36:34.705Z,40.24
2023-05-22T03:37:34.810Z,40.22
2023-05-22T03:38:34.899Z,40.23
2023-05-22T03:39:34.970Z,40.24
2023-05-22T03:40:35.067Z,40.22
2023-05-22T03:41:35.139Z,40.21
2023-05-22T03:42:35.219Z,40.20
2023-05-22T03:43:35.273Z,40.22
2023-05-22T03:44:35.363Z,40.21
2023-05-22T03:45:35.458Z,40.23
2023-05-22T03:46:35.542Z,40.21
2023-05-22T03:47:35.625Z,40.20
2023-05-22T03:48:35.675Z,40.21
2023-05-22T03:49:35.746Z,40.18
2023-05-22T03:50:35.812Z,40.17
2023-05-22T03:51:35.898Z,40.17
2023-05-22T03:52:35.967Z,40.19
2023-05-22T03:53:36.064Z,40.20
2023-05-22T03:54:36.139Z,40.18
2023-05-22T03:55:36.244Z,40.17
2023-05-22T03:56:36.323Z,40.15
2023-05-22T03:57:36.379Z,40.13
2023-05-22T03:58:36.457Z,40.13
2023-05-22T03:59:36.545Z,40.08
2023-05-22T04:00:36.794Z,40.04
2023-05-22T04:01:36.708Z,40.04
2023-05-22T04:02:36.817Z,40.01
2023-05-22T04:03:36.993Z,40.02
2023-05-22T04:04:36.977Z,39.98
2023-05-22T04:05:37.083Z,39.96
2023-05-22T04:06:37.100Z,39.95
2023-05-22T04:07:37.193Z,39.94
2023-05-22T04:08:37.279Z,39.93
2023-05-22T04:09:37.362Z,39.97
2023-05-22T04:10:37.753Z,39.93
2023-05-22T04:11:37.500Z,39.93
2023-05-22T04:12:37.584Z,39.93
2023-05-22T04:13:37.667Z,39.92
2023-05-22T04:14:37.741Z,39.89
2023-05-22T04:15:37.829Z,39.89
2023-05-22T04:16:37.905Z,39.89
2023-05-22T04:17:38.013Z,39.87
2023-05-22T04:18:38.056Z,39.88
2023-05-22T04:19:38.158Z,39.89
2023-05-22T04:20:38.381Z,39.87
2023-05-22T04:21:38.298Z,39.85
2023-05-22T04:22:38.366Z,39.83
2023-05-22T04:23:38.430Z,39.78
2023-05-22T04:24:38.502Z,39.79
2023-05-22T04:25:38.611Z,39.75
2023-05-22T04:26:40.963Z,39.77
2023-05-22T04:27:38.769Z,39.77
2023-05-22T04:28:38.856Z,39.74
2023-05-22T04:29:38.926Z,39.78
2023-05-22T04:30:39.130Z,39.76
2023-05-22T04:31:39.131Z,39.77
2023-05-22T04:32:39.221Z,39.72
2023-05-22T04:33:39.268Z,39.69
2023-05-22T04:34:39.393Z,39.73
2023-05-22T04:35:39.421Z,39.73
2023-05-22T04:36:39.489Z,39.69
2023-05-22T04:37:39.572Z,39.65
2023-05-22T04:38:39.643Z,39.62
2023-05-22T04:39:39.728Z,39.59
2023-05-22T04:40:40.071Z,39.60
2023-05-22T04:41:39.882Z,39.57
2023-05-22T04:42:39.966Z,39.61
2023-05-22T04:43:40.039Z,39.62
2023-05-22T04:44:40.141Z,39.62
2023-05-22T04:45:40.250Z,39.60
2023-05-22T04:46:40.362Z,39.51
2023-05-22T04:47:40.413Z,39.56
2023-05-22T04:48:40.495Z,39.59
2023-05-22T04:49:40.552Z,39.51
2023-05-22T04:50:40.913Z,39.50
2023-05-22T04:51:40.725Z,39.49
2023-05-22T04:52:40.791Z,39.47
2023-05-22T04:53:40.851Z,39.47
2023-05-22T04:54:40.934Z,39.48
2023-05-22T04:55:41.001Z,39.46
2023-05-22T04:56:41.107Z,39.46
2023-05-22T04:57:41.202Z,39.48
2023-05-22T04:58:41.266Z,39.43
2023-05-22T04:59:41.344Z,39.45
2023-05-22T05:00:41.615Z,39.45
2023-05-22T05:01:41.533Z,39.48
2023-05-22T05:02:41.632Z,39.43
2023-05-22T05:03:41.719Z,39.45
2023-05-22T05:04:41.732Z,39.43
2023-05-22T05:05:41.809Z,39.44
2023-05-22T05:06:41.892Z,39.44
2023-05-22T05:07:41.975Z,39.46
2023-05-22T05:08:42.051Z,39.48
2023-05-22T05:09:42.134Z,39.43
2023-05-22T05:10:42.196Z,39.43
2023-05-22T05:11:42.263Z,39.40
2023-05-22T05:12:42.332Z,39.42
2023-05-22T05:13:42.403Z,39.39
2023-05-22T05:14:42.472Z,39.38
2023-05-22T05:15:42.580Z,39.38
2023-05-22T05:16:42.696Z,39.39
2023-05-22T05:17:42.784Z,39.39
2023-05-22T05:18:42.828Z,39.36
2023-05-22T05:19:42.956Z,39.36
2023-05-22T05:20:43.013Z,39.38
2023-05-22T05:21:43.118Z,39.35
2023-05-22T05:22:43.186Z,39.32
2023-05-22T05:23:43.250Z,39.37
2023-05-22T05:24:43.331Z,39.34
2023-05-22T05:25:43.401Z,39.32
2023-05-22T05:26:43.491Z,39.31
2023-05-22T05:27:43.597Z,39.36
2023-05-22T05:28:43.651Z,39.39
2023-05-22T05:29:43.742Z,39.39
2023-05-22T05:30:43.802Z,39.42
2023-05-22T05:31:43.953Z,39.43
2023-05-22T05:32:44.026Z,39.39
2023-05-22T05:33:44.043Z,39.39
2023-05-22T05:34:44.143Z,39.42
2023-05-22T05:35:44.214Z,39.42
2023-05-22T05:36:44.276Z,39.37
2023-05-22T05:37:44.361Z,39.35
2023-05-22T05:38:44.438Z,39.36
2023-05-22T05:39:44.512Z,39.30
2023-05-22T05:40:44.602Z,39.30
2023-05-22T05:41:44.685Z,39.30
2023-05-22T05:42:45.094Z,39.28
2023-05-22T05:43:44.850Z,39.30
2023-05-22T05:44:44.957Z,39.32
2023-05-22T05:45:45.129Z,39.26
2023-05-22T05:46:45.163Z,39.22
2023-05-22T05:47:45.283Z,39.19
2023-05-22T05:48:45.315Z,39.17
2023-05-22T05:49:45.388Z,39.12
2023-05-22T05:50:45.458Z,39.10
2023-05-22T05:51:45.540Z,39.09
2023-05-22T05:52:45.625Z,39.08
2023-05-22T05:53:45.702Z,39.10
2023-05-22T05:54:45.786Z,39.07
2023-05-22T05:55:45.884Z,39.07
2023-05-22T05:56:45.956Z,39.03
2023-05-22T05:57:46.030Z,39.00
2023-05-22T05:58:46.119Z,39.01
2023-05-22T05:59:46.183Z,39.00
2023-05-22T06:00:46.252Z,39.00
2023-05-22T06:01:46.340Z,39.02
2023-05-22T06:02:48.872Z,39.02
2023-05-22T06:03:46.595Z,39.01
2023-05-22T06:04:46.562Z,38.99
2023-05-22T06:05:46.632Z,38.96
2023-05-22T06:06:46.692Z,39.00
2023-05-22T06:07:46.775Z,38.98
2023-05-22T06:08:46.862Z,38.97
2023-05-22T06:09:46.950Z,38.98
2023-05-22T06:10:47.002Z,38.98
2023-05-22T06:11:47.064Z,38.98
2023-05-22T06:12:47.172Z,38.93
2023-05-22T06:13:47.237Z,38.92
2023-05-22T06:14:47.314Z,38.94
2023-05-22T06:15:47.437Z,38.94
2023-05-22T06:16:48.216Z,38.91
2023-05-22T06:17:47.617Z,38.90
2023-05-22T06:18:47.688Z,38.91
2023-05-22T06:19:47.754Z,38.93
2023-05-22T06:20:47.808Z,38.89
2023-05-22T06:21:48.615Z,38.90
2023-05-22T06:22:48.026Z,38.91
2023-05-22T06:23:48.081Z,38.89
2023-05-22T06:24:48.178Z,38.88
2023-05-22T06:25:48.212Z,38.86
2023-05-22T06:26:48.297Z,38.86
2023-05-22T06:27:48.372Z,38.85
2023-05-22T06:28:48.459Z,38.86
2023-05-22T06:29:48.535Z,38.83
2023-05-22T06:30:48.867Z,38.83
2023-05-22T06:31:48.776Z,38.84
2023-05-22T06:32:48.971Z,38.84
2023-05-22T06:33:49.030Z,38.83
2023-05-22T06:34:48.942Z,38.82
2023-05-22T06:35:49.032Z,38.80
2023-05-22T06:36:49.093Z,38.80
2023-05-22T06:37:49.190Z,38.78
2023-05-22T06:38:49.270Z,38.78
2023-05-22T06:39:49.384Z,38.78
2023-05-22T06:40:49.486Z,38.76
2023-05-22T06:41:49.531Z,38.76
2023-05-22T06:42:49.607Z,38.77
2023-05-22T06:43:49.678Z,38.76
2023-05-22T06:44:49.759Z,38.74
2023-05-22T06:45:49.872Z,38.72
2023-05-22T06:46:49.935Z,38.72
2023-05-22T06:47:50.021Z,38.74
2023-05-22T06:48:50.077Z,38.74
2023-05-22T06:49:50.143Z,38.74
2023-05-22T06:50:50.210Z,38.75
2023-05-22T06:51:50.324Z,38.74
2023-05-22T06:52:50.401Z,38.74
2023-05-22T06:53:50.488Z,38.72
2023-05-22T06:54:50.560Z,38.71
2023-05-22T06:55:50.634Z,38.69
2023-05-22T06:56:50.690Z,38.71
2023-05-22T06:57:50.802Z,38.70
2023-05-22T06:58:50.880Z,38.70
2023-05-22T06:59:50.961Z,38.70
2023-05-22T07:00:51.075Z,38.70
2023-05-22T07:01:51.134Z,39.06
2023-05-22T07:02:51.231Z,40.08
2023-05-22T07:03:51.287Z,39.90
2023-05-22T07:04:51.377Z,41.06
2023-05-22T07:05:51.470Z,43.65
2023-05-22T07:06:51.559Z,44.37
2023-05-22T07:07:51.652Z,45.34
2023-05-22T07:08:51.698Z,45.80
2023-05-22T07:09:51.784Z,45.81
2023-05-22T07:10:51.858Z,46.12
2023-05-22T07:11:51.947Z,46.43
2023-05-22T07:12:52.040Z,46.64
2023-05-22T07:13:52.122Z,47.00
2023-05-22T07:14:52.192Z,47.34
2023-05-22T07:15:52.269Z,47.43
2023-05-22T07:16:52.468Z,47.47
2023-05-22T07:17:52.486Z,47.58
2023-05-22T07:18:52.565Z,47.53
2023-05-22T07:19:52.624Z,47.61
2023-05-22T07:20:52.719Z,47.67
2023-05-22T07:21:52.796Z,47.96
2023-05-22T07:22:52.849Z,47.81
2023-05-22T07:23:52.961Z,47.73
2023-05-22T07:24:53.016Z,47.90
2023-05-22T07:25:53.149Z,48.02
2023-05-22T07:26:53.200Z,48.09
2023-05-22T07:27:53.295Z,48.12
2023-05-22T07:28:53.329Z,48.16
2023-05-22T07:29:53.390Z,48.33
2023-05-22T07:30:53.465Z,48.35
2023-05-22T07:31:53.625Z,48.09
2023-05-22T07:32:53.648Z,47.71
2023-05-22T07:33:53.688Z,47.52
2023-05-22T07:34:53.760Z,47.30
2023-05-22T07:35:53.832Z,47.01
2023-05-22T07:36:53.915Z,46.66
2023-05-22T07:37:53.986Z,46.53
2023-05-22T07:38:54.068Z,46.34
2023-05-22T07:39:54.159Z,46.16
2023-05-22T07:40:54.239Z,46.07
2023-05-22T07:41:55.392Z,45.87
2023-05-22T07:42:54.390Z,45.71
2023-05-22T07:43:54.478Z,45.58
2023-05-22T07:44:54.561Z,45.46
2023-05-22T07:45:54.652Z,45.32
2023-05-22T07:46:54.720Z,45.22
2023-05-22T07:47:56.300Z,45.15
2023-05-22T07:48:54.891Z,45.06
2023-05-22T07:49:54.968Z,44.96
2023-05-22T07:50:55.037Z,44.88
2023-05-22T07:51:55.122Z,44.78
2023-05-22T07:52:55.201Z,44.74
2023-05-22T07:53:55.277Z,44.62
2023-05-22T07:54:55.363Z,44.53
2023-05-22T07:55:55.432Z,44.53
2023-05-22T07:56:55.504Z,44.46
2023-05-22T07:57:55.604Z,44.39
2023-05-22T07:58:55.697Z,44.32
2023-05-22T07:59:55.764Z,44.26
2023-05-22T08:00:55.836Z,44.21
2023-05-22T08:01:58.208Z,44.17
2023-05-22T08:02:56.133Z,44.14
2023-05-22T08:03:56.338Z,44.07
2023-05-22T08:04:56.219Z,44.06
2023-05-22T08:05:56.280Z,44.01
2023-05-22T08:06:56.350Z,43.98
2023-05-22T08:07:56.424Z,43.94
2023-05-22T08:08:56.500Z,43.90
2023-05-22T08:09:56.622Z,43.86
2023-05-22T08:11:04.094Z,43.84
2023-05-22T08:11:56.726Z,43.83
2023-05-22T08:12:56.825Z,43.76
2023-05-22T08:13:56.925Z,43.76
2023-05-22T08:14:56.988Z,43.71
2023-05-22T08:16:00.265Z,43.76
2023-05-22T08:16:57.218Z,43.67
2023-05-22T08:17:57.294Z,43.59
2023-05-22T08:18:57.376Z,43.59
2023-05-22T08:19:57.561Z,43.57
2023-05-22T08:20:57.594Z,43.53
2023-05-22T08:21:57.588Z,43.50
2023-05-22T08:22:57.668Z,43.50
2023-05-22T08:23:57.742Z,43.55
2023-05-22T08:24:57.880Z,43.44
2023-05-22T08:25:57.977Z,43.41
2023-05-22T08:26:58.019Z,43.35
2023-05-22T08:27:58.112Z,43.36
2023-05-22T08:28:58.165Z,43.33
2023-05-22T08:29:58.237Z,43.32
2023-05-22T08:30:58.321Z,43.31
2023-05-22T08:31:58.522Z,43.42
2023-05-22T08:32:58.479Z,43.93
2023-05-22T08:33:58.545Z,43.73
2023-05-22T08:35:04.584Z,43.87
2023-05-22T08:35:58.715Z,43.86
2023-05-22T08:36:58.795Z,43.84
2023-05-22T08:37:58.866Z,43.77
2023-05-22T08:38:58.946Z,43.62
2023-05-22T08:39:58.999Z,43.63
2023-05-22T08:40:59.075Z,43.46
2023-05-22T08:41:59.166Z,43.42
2023-05-22T08:42:59.240Z,43.38
2023-05-22T08:43:59.320Z,43.35
2023-05-22T08:44:59.405Z,43.29
2023-05-22T08:45:59.472Z,43.31
2023-05-22T08:46:59.601Z,43.29
2023-05-22T08:47:59.660Z,43.23
2023-05-22T08:48:59.701Z,43.19
2023-05-22T08:49:59.802Z,43.15
2023-05-22T08:50:59.880Z,43.16
2023-05-22T08:51:59.952Z,43.16
2023-05-22T08:53:00.043Z,43.11
2023-05-22T08:54:00.149Z,43.51
2023-05-22T08:55:00.225Z,43.82
2023-05-22T08:56:00.303Z,43.98
2023-05-22T08:57:00.371Z,44.01
2023-05-22T08:58:00.617Z,43.91
2023-05-22T08:59:00.549Z,43.78
2023-05-22T09:00:00.637Z,43.86
2023-05-22T09:01:00.743Z,43.68
2023-05-22T09:02:00.789Z,43.61
2023-05-22T09:03:01.005Z,43.64
2023-05-22T09:04:00.985Z,43.58
2023-05-22T09:05:01.033Z,43.57
2023-05-22T09:06:01.129Z,43.55
2023-05-22T09:07:01.206Z,43.49
2023-05-22T09:08:12.143Z,43.47
2023-05-22T09:09:01.380Z,43.42
2023-05-22T09:10:01.437Z,43.41
2023-05-22T09:11:01.562Z,43.39
2023-05-22T09:12:01.592Z,43.36
2023-05-22T09:13:01.672Z,43.32
2023-05-22T09:14:01.760Z,43.23
2023-05-22T09:15:01.847Z,43.39
2023-05-22T09:16:02.070Z,43.31
2023-05-22T09:17:02.063Z,43.44
2023-05-22T09:18:02.122Z,43.32
2023-05-22T09:19:02.224Z,43.23
2023-05-22T09:20:02.272Z,43.18
2023-05-22T09:21:02.692Z,43.07
2023-05-22T09:22:02.426Z,43.12
2023-05-22T09:23:02.526Z,43.16
2023-05-22T09:24:02.656Z,43.11
2023-05-22T09:25:02.679Z,43.10
2023-05-22T09:26:02.758Z,43.09
2023-05-22T09:27:02.838Z,43.09
2023-05-22T09:28:02.909Z,43.05
2023-05-22T09:29:02.981Z,43.01
2023-05-22T09:30:03.054Z,42.98
2023-05-22T09:31:04.384Z,42.92
2023-05-22T09:32:03.223Z,42.89
2023-05-22T09:33:03.341Z,42.89
2023-05-22T09:34:03.390Z,42.86
2023-05-22T09:35:03.478Z,42.83
2023-05-22T09:36:03.567Z,42.77
2023-05-22T09:37:03.636Z,42.77
2023-05-22T09:38:03.712Z,42.36
2023-05-22T09:39:03.778Z,42.55
2023-05-22T09:40:03.866Z,42.52
2023-05-22T09:41:03.969Z,41.97
2023-05-22T09:42:04.642Z,42.16
2023-05-22T09:43:04.108Z,42.32
2023-05-22T09:44:04.194Z,42.27
2023-05-22T09:45:04.267Z,42.21
2023-05-22T09:46:04.451Z,42.22
2023-05-22T09:47:04.423Z,42.18
2023-05-22T09:48:04.579Z,42.19
2023-05-22T09:49:04.573Z,42.16
2023-05-22T09:50:04.645Z,42.17
2023-05-22T09:51:04.737Z,42.16
2023-05-22T09:52:04.806Z,42.15
2023-05-22T09:53:05.246Z,42.11
2023-05-22T09:54:05.092Z,42.10
2023-05-22T09:55:05.265Z,42.13
2023-05-22T09:56:05.189Z,42.06
2023-05-22T09:57:05.265Z,42.01
2023-05-22T09:58:05.338Z,42.02
2023-05-22T09:59:05.412Z,42.11
2023-05-22T10:00:05.568Z,42.09
2023-05-22T10:01:05.572Z,42.07
2023-05-22T10:02:05.804Z,41.95
2023-05-22T10:03:05.811Z,42.07
2023-05-22T10:04:05.866Z,42.03
2023-05-22T10:05:05.909Z,42.03
2023-05-22T10:06:06.024Z,42.03
2023-05-22T10:07:06.094Z,42.09
2023-05-22T10:08:06.175Z,42.08
2023-05-22T10:09:06.253Z,42.07
2023-05-22T10:10:06.317Z,42.08
2023-05-22T10:11:06.395Z,42.05
2023-05-22T10:12:06.473Z,42.04
2023-05-22T10:13:06.546Z,42.04
2023-05-22T10:14:06.629Z,42.05
2023-05-22T10:15:06.718Z,42.06
2023-05-22T10:16:06.802Z,42.02
2023-05-22T10:17:06.890Z,42.01
2023-05-22T10:18:07.024Z,42.03
2023-05-22T10:19:07.068Z,42.00
2023-05-22T10:20:07.091Z,41.99
2023-05-22T10:21:07.170Z,41.97
2023-05-22T10:22:07.268Z,41.94
2023-05-22T10:23:07.346Z,41.94
2023-05-22T10:24:07.434Z,41.96
2023-05-22T10:25:09.877Z,41.28
2023-05-22T10:26:07.590Z,41.25
2023-05-22T10:27:07.687Z,41.39
2023-05-22T10:28:07.741Z,41.48
2023-05-22T10:29:07.833Z,41.03
2023-05-22T10:30:07.926Z,40.95
2023-05-22T10:31:07.982Z,40.90
2023-05-22T10:32:08.073Z,40.63
2023-05-22T10:33:08.230Z,40.35
2023-05-22T10:34:08.320Z,40.32
2023-05-22T10:35:08.365Z,40.56
2023-05-22T10:36:08.402Z,40.56
2023-05-22T10:37:17.275Z,40.57
2023-05-22T10:38:08.594Z,40.61
2023-05-22T10:39:08.665Z,40.14
2023-05-22T10:40:08.749Z,40.11
2023-05-22T10:41:08.851Z,40.38
2023-05-22T10:42:08.921Z,40.38
2023-05-22T10:43:09.014Z,40.32
2023-05-22T10:44:09.056Z,40.32
2023-05-22T10:45:09.139Z,40.32
2023-05-22T10:46:09.351Z,40.25
2023-05-22T10:47:09.324Z,40.18
2023-05-22T10:48:09.479Z,40.21
2023-05-22T10:49:09.494Z,40.30
2023-05-22T10:50:09.564Z,40.30
2023-05-22T10:51:09.640Z,40.37
2023-05-22T10:52:09.715Z,40.36
2023-05-22T10:53:09.780Z,40.33
2023-05-22T10:54:09.859Z,40.38
2023-05-22T10:55:09.935Z,40.34
2023-05-22T10:56:10.031Z,40.38
2023-05-22T10:57:10.123Z,40.40
2023-05-22T10:58:10.224Z,40.40
2023-05-22T10:59:10.302Z,40.45
2023-05-22T11:00:10.486Z,40.46
2023-05-22T11:01:10.451Z,40.46
2023-05-22T11:02:11.544Z,40.50
2023-05-22T11:03:18.066Z,40.50
2023-05-22T11:04:10.724Z,40.52
2023-05-22T11:05:10.777Z,40.53
2023-05-22T11:06:10.825Z,40.55
2023-05-22T11:07:10.901Z,40.52
2023-05-22T11:08:10.997Z,40.53
2023-05-22T11:09:11.090Z,40.52
2023-05-22T11:10:11.164Z,40.52
2023-05-22T11:11:11.259Z,40.53
2023-05-22T11:12:11.323Z,40.54
2023-05-22T11:13:11.424Z,40.54
2023-05-22T11:14:11.510Z,40.58
2023-05-22T11:15:11.569Z,40.56
2023-05-22T11:16:11.687Z,40.58
2023-05-22T11:17:11.891Z,40.55
2023-05-22T11:18:11.903Z,40.56
2023-05-22T11:19:22.697Z,40.58
2023-05-22T11:20:12.102Z,40.61
2023-05-22T11:21:12.114Z,40.58
2023-05-22T11:22:12.174Z,40.61
2023-05-22T11:23:12.274Z,40.59
2023-05-22T11:24:12.322Z,40.58
2023-05-22T11:25:12.411Z,40.57
2023-05-22T11:26:12.492Z,40.56
2023-05-22T11:27:12.564Z,40.53
2023-05-22T11:28:12.668Z,40.52
2023-05-22T11:29:13.643Z,40.52
2023-05-22T11:30:12.940Z,40.50
2023-05-22T11:31:12.942Z,40.50
2023-05-22T11:32:12.994Z,40.50
2023-05-22T11:33:13.100Z,40.48
2023-05-22T11:34:13.168Z,40.48
2023-05-22T11:35:13.771Z,40.50
2023-05-22T11:36:13.360Z,40.50
2023-05-22T11:37:13.423Z,40.52
2023-05-22T11:38:13.485Z,40.50
2023-05-22T11:39:13.584Z,40.46
2023-05-22T11:40:13.647Z,40.45
2023-05-22T11:41:13.730Z,40.43
2023-05-22T11:42:13.830Z,40.43
2023-05-22T11:43:13.903Z,40.46
2023-05-22T11:44:14.029Z,40.46
2023-05-22T11:45:14.067Z,40.45
2023-05-22T11:46:14.263Z,40.51
2023-05-22T11:47:14.252Z,40.45
2023-05-22T11:48:15.722Z,40.44
2023-05-22T11:49:14.415Z,40.41
2023-05-22T11:50:17.923Z,40.40
2023-05-22T11:51:14.569Z,40.40
2023-05-22T11:52:14.638Z,40.39
2023-05-22T11:53:14.712Z,40.23
2023-05-22T11:54:14.771Z,39.80
2023-05-22T11:55:14.868Z,39.85
2023-05-22T11:56:14.944Z,40.10
2023-05-22T11:57:15.046Z,40.08
2023-05-22T11:58:15.109Z,40.07
2023-05-22T11:59:15.185Z,40.04
2023-05-22T12:00:15.424Z,40.00
2023-05-22T12:01:15.336Z,39.99
2023-05-22T12:02:15.487Z,39.99
2023-05-22T12:03:15.579Z,39.98
2023-05-22T12:04:15.642Z,40.04
2023-05-22T12:05:15.676Z,40.00
2023-05-22T12:06:17.439Z,40.00
2023-05-22T12:07:15.891Z,40.02
2023-05-22T12:08:15.967Z,40.07
2023-05-22T12:09:16.001Z,40.06
2023-05-22T12:10:16.091Z,40.05
2023-05-22T12:11:16.157Z,40.08
2023-05-22T12:12:16.224Z,40.07
2023-05-22T12:13:16.284Z,40.03
2023-05-22T12:14:16.374Z,40.03
2023-05-22T12:15:16.437Z,40.04
2023-05-22T12:16:16.565Z,40.03
2023-05-22T12:17:16.596Z,40.07
2023-05-22T12:18:16.661Z,40.07
2023-05-22T12:19:16.771Z,40.03
2023-05-22T12:20:16.886Z,40.01
2023-05-22T12:21:16.928Z,40.00
2023-05-22T12:22:17.020Z,39.98
2023-05-22T12:23:17.079Z,39.95
2023-05-22T12:24:17.190Z,39.96
2023-05-22T12:25:17.264Z,39.94
2023-05-22T12:26:17.353Z,39.95
2023-05-22T12:27:17.394Z,39.97
2023-05-22T12:28:17.467Z,39.97
2023-05-22T12:29:17.553Z,39.99
2023-05-22T12:30:17.636Z,39.98
2023-05-22T12:31:17.719Z,39.96
2023-05-22T12:32:17.892Z,39.97
2023-05-22T12:33:17.981Z,39.97
2023-05-22T12:34:17.995Z,39.97
2023-05-22T12:35:18.052Z,39.96
2023-05-22T12:36:18.120Z,39.98
2023-05-22T12:37:18.208Z,40.02
2023-05-22T12:38:18.249Z,40.03
2023-05-22T12:39:18.334Z,40.02
2023-05-22T12:40:18.480Z,40.02
2023-05-22T12:41:18.495Z,40.02
2023-05-22T12:42:18.552Z,40.00
2023-05-22T12:43:18.631Z,40.01
2023-05-22T12:44:18.722Z,40.01
2023-05-22T12:45:18.857Z,40.00
2023-05-22T12:46:18.921Z,40.01
2023-05-22T12:47:18.951Z,40.02
2023-05-22T12:48:19.036Z,40.00
2023-05-22T12:49:19.134Z,40.01
2023-05-22T12:50:19.182Z,40.03
2023-05-22T12:51:20.146Z,40.04
2023-05-22T12:52:19.415Z,40.06
2023-05-22T12:53:19.461Z,40.04
2023-05-22T12:54:19.532Z,40.06